createdAt,value
2018-11-03T00:00:10.873Z,7.4
2018-11-03T00:01:01.534Z,7.4
2018-11-03T00:01:51.296Z,7.4
2018-11-03T00:02:41.651Z,7.3
2018-11-03T00:03:31.379Z,7.3
2018-11-03T00:04:21.491Z,7.3
2018-11-03T00:05:11.951Z,7.3
2018-11-03T00:06:01.921Z,7.3
2018-11-03T00:06:50.963Z,7.3
2018-11-03T00:25:00.700Z,6.9
2018-11-03T00:25:49.575Z,6.9
2018-11-03T00:26:40.225Z,6.8
2018-11-03T00:27:29.588Z,6.8
2018-11-03T00:28:21.700Z,6.8
2018-11-03T00:29:10.380Z,6.8
2018-11-03T00:29:59.837Z,6.8
2018-11-03T00:30:50.205Z,6.8
2018-11-03T00:31:40.984Z,6.8
2018-11-03T00:32:30.439Z,6.8
2018-11-03T00:33:20.962Z,6.8
2018-11-03T00:34:11.018Z,6.8
2018-11-03T00:35:01.477Z,6.8
2018-11-03T00:35:50.924Z,6.8
2018-11-03T00:36:40.351Z,6.8
2018-11-03T00:37:30.995Z,6.8
2018-11-03T00:38:21.387Z,6.8
2018-11-03T00:39:10.839Z,6.8
2018-11-03T00:40:00.912Z,6.8
2018-11-03T00:40:51.743Z,6.8
2018-11-03T00:41:41.676Z,6.8
2018-11-03T00:42:31.237Z,6.8
2018-11-03T00:43:21.137Z,6.8
2018-11-03T00:44:11.000Z,6.8
2018-11-03T00:45:01.967Z,6.8
2018-11-03T00:45:51.404Z,6.8
2018-11-03T00:46:41.962Z,6.8
2018-11-03T00:47:32.003Z,6.8
2018-11-03T00:48:22.819Z,6.9
2018-11-03T00:49:11.639Z,6.8
2018-11-03T00:50:01.416Z,6.8
2018-11-03T00:50:51.696Z,6.8
2018-11-03T00:51:42.861Z,6.8
2018-11-03T00:52:32.394Z,6.8
2018-11-03T00:53:22.494Z,6.8
2018-11-03T00:54:12.204Z,6.8
2018-11-03T00:55:02.631Z,6.8
2018-11-03T00:55:52.588Z,6.9
2018-11-03T00:56:42.383Z,6.8
2018-11-03T00:57:32.561Z,6.8
2018-11-03T00:58:22.691Z,6.8
2018-11-03T00:59:12.306Z,6.8
2018-11-03T01:00:02.063Z,6.8
2018-11-03T01:00:53.007Z,6.8
2018-11-03T01:01:43.279Z,6.9
2018-11-03T01:02:33.130Z,6.8
2018-11-03T01:03:22.612Z,6.9
2018-11-03T01:04:12.666Z,6.9
2018-11-03T01:05:03.519Z,6.9
2018-11-03T01:05:52.486Z,6.9
2018-11-03T01:06:43.682Z,6.9
2018-11-03T01:07:32.712Z,6.8
2018-11-03T01:08:23.583Z,6.9
2018-11-03T01:09:13.319Z,6.8
2018-11-03T01:10:03.385Z,6.8
2018-11-03T01:10:53.452Z,6.8
2018-11-03T01:11:43.524Z,6.9
2018-11-03T01:12:32.981Z,6.9
2018-11-03T01:13:22.927Z,6.8
2018-11-03T01:14:13.120Z,6.8
2018-11-03T01:15:04.029Z,6.8
2018-11-03T01:15:53.238Z,6.8
2018-11-03T01:16:43.613Z,6.8
2018-11-03T01:17:34.222Z,6.8
2018-11-03T01:18:24.621Z,6.8
2018-11-03T01:19:14.042Z,6.8
2018-11-03T01:20:03.842Z,6.8
2018-11-03T01:20:54.484Z,6.8
2018-11-03T01:21:43.704Z,6.8
2018-11-03T01:22:34.384Z,6.7
2018-11-03T01:23:24.798Z,6.7
2018-11-03T01:24:13.842Z,6.7
2018-11-03T01:25:04.386Z,6.7
2018-11-03T01:25:54.841Z,6.7
2018-11-03T01:26:44.894Z,6.7
2018-11-03T01:27:34.474Z,6.6
2018-11-03T01:28:25.329Z,6.6
2018-11-03T01:29:14.791Z,6.7
2018-11-03T01:30:04.667Z,6.6
2018-11-03T01:30:54.659Z,6.6
2018-11-03T01:31:45.491Z,6.6
2018-11-03T01:32:34.739Z,6.6
2018-11-03T01:33:25.634Z,6.6
2018-11-03T01:34:15.179Z,6.6
2018-11-03T01:35:05.193Z,6.5
2018-11-03T01:35:54.989Z,6.5
2018-11-03T01:36:45.349Z,6.4
2018-11-03T01:37:35.704Z,6.4
2018-11-03T01:38:25.251Z,6.4
2018-11-03T01:39:15.547Z,6.4
2018-11-03T01:40:05.885Z,6.4
2018-11-03T01:40:55.643Z,6.4
2018-11-03T01:41:45.448Z,6.4
2018-11-03T01:42:35.777Z,6.3
2018-11-03T01:43:25.534Z,6.3
2018-11-03T01:44:15.443Z,6.3
2018-11-03T01:45:05.262Z,6.3
2018-11-03T01:45:55.723Z,6.3
2018-11-03T01:46:45.786Z,6.3
2018-11-03T01:47:35.864Z,6.3
2018-11-03T01:48:25.920Z,6.3
2018-11-03T01:49:16.023Z,6.3
2018-11-03T01:50:06.053Z,6.3
2018-11-03T01:50:56.397Z,6.3
2018-11-03T01:51:46.179Z,6.3
2018-11-03T01:52:36.535Z,6.3
2018-11-03T01:53:25.994Z,6.2
2018-11-03T01:54:16.342Z,6.2
2018-11-03T01:55:06.971Z,6.2
2018-11-03T01:55:56.708Z,6.2
2018-11-03T01:56:46.530Z,6.2
2018-11-03T01:57:36.877Z,6.2
2018-11-03T01:58:26.942Z,6.2
2018-11-03T01:59:17.063Z,6.2
2018-11-03T02:00:06.762Z,6.2
2018-11-03T02:00:57.123Z,6.2
2018-11-03T02:01:46.600Z,6.1
2018-11-03T02:02:37.255Z,6.2
2018-11-03T02:03:27.025Z,6.1
2018-11-03T02:04:17.087Z,6.1
2018-11-03T02:05:06.552Z,6.2
2018-11-03T02:05:57.190Z,6.2
2018-11-03T02:06:47.272Z,6.1
2018-11-03T02:07:37.334Z,6.2
2018-11-03T02:08:27.973Z,6.1
2018-11-03T02:09:17.734Z,6.1
2018-11-03T02:10:07.394Z,6.1
2018-11-03T02:10:58.155Z,6.1
2018-11-03T02:11:47.934Z,6.1
2018-11-03T02:12:37.966Z,6.1
2018-11-03T02:13:28.346Z,6.1
2018-11-03T02:14:18.397Z,6.1
2018-11-03T02:15:08.178Z,6.1
2018-11-03T02:15:58.561Z,6.1
2018-11-03T02:16:48.576Z,6.1
2018-11-03T02:17:38.342Z,6.1
2018-11-03T02:18:28.403Z,6.1
2018-11-03T02:19:18.472Z,6.1
2018-11-03T02:20:08.566Z,6.1
2018-11-03T02:20:58.426Z,6.1
2018-11-03T02:21:48.923Z,6
2018-11-03T02:22:38.141Z,6.1
2018-11-03T02:23:29.054Z,6
2018-11-03T02:24:18.844Z,6
2018-11-03T02:25:08.860Z,6
2018-11-03T02:25:58.372Z,6
2018-11-03T02:26:49.283Z,6
2018-11-03T02:27:39.089Z,5.9
2018-11-03T02:28:28.503Z,6
2018-11-03T02:29:19.355Z,5.9
2018-11-03T02:30:09.595Z,6
2018-11-03T02:30:59.350Z,5.9
2018-11-03T02:31:49.198Z,5.9
2018-11-03T02:32:39.167Z,5.9
2018-11-03T02:33:29.527Z,5.9
2018-11-03T02:34:19.821Z,5.9
2018-11-03T02:35:09.630Z,5.9
2018-11-03T02:36:00.229Z,5.9
2018-11-03T02:36:49.461Z,5.9
2018-11-03T02:37:39.808Z,5.8
2018-11-03T02:38:29.622Z,5.8
2018-11-03T02:39:20.332Z,5.8
2018-11-03T02:40:09.704Z,5.8
2018-11-03T02:41:00.063Z,5.8
2018-11-03T02:41:50.022Z,5.8
2018-11-03T02:42:40.517Z,5.8
2018-11-03T02:43:30.267Z,5.8
2018-11-03T02:44:20.589Z,5.8
2018-11-03T02:45:10.444Z,5.8
2018-11-03T02:46:00.988Z,5.7
2018-11-03T02:46:50.495Z,5.7
2018-11-03T02:47:40.565Z,5.7
2018-11-03T02:48:30.912Z,5.7
2018-11-03T02:49:21.239Z,5.7
2018-11-03T02:50:10.445Z,5.6
2018-11-03T02:51:00.511Z,5.6
2018-11-03T02:51:50.872Z,5.7
2018-11-03T02:52:41.415Z,5.7
2018-11-03T02:53:30.699Z,5.7
2018-11-03T02:54:21.367Z,5.7
2018-11-03T02:55:10.817Z,5.7
2018-11-03T02:56:01.517Z,5.7
2018-11-03T02:56:50.828Z,5.7
2018-11-03T02:57:41.005Z,5.7
2018-11-03T02:58:31.879Z,5.7
2018-11-03T02:59:21.874Z,5.7
2018-11-03T03:00:11.178Z,5.7
2018-11-03T03:01:01.539Z,5.7
2018-11-03T03:01:51.890Z,5.7
2018-11-03T03:02:42.364Z,5.6
2018-11-03T03:03:31.529Z,5.7
2018-11-03T03:04:21.796Z,5.6
2018-11-03T03:05:11.843Z,5.6
2018-11-03T03:06:02.031Z,5.6
2018-11-03T03:06:52.258Z,5.6
2018-11-03T03:07:41.426Z,5.6
2018-11-03T03:08:31.842Z,5.6
2018-11-03T03:09:22.521Z,5.6
2018-11-03T03:10:12.544Z,5.6
2018-11-03T03:11:02.362Z,5.6
2018-11-03T03:11:52.421Z,5.6
2018-11-03T03:12:43.301Z,5.6
2018-11-03T03:13:31.955Z,5.6
2018-11-03T03:14:22.520Z,5.5
2018-11-03T03:15:12.918Z,5.5
2018-11-03T03:16:03.648Z,5.5
2018-11-03T03:16:52.721Z,5.5
2018-11-03T03:17:42.508Z,5.4
2018-11-03T03:18:32.238Z,5.5
2018-11-03T03:19:22.450Z,5.5
2018-11-03T03:20:12.705Z,5.4
2018-11-03T03:21:02.768Z,5.5
2018-11-03T03:21:52.550Z,5.5
2018-11-03T03:22:43.188Z,5.5
2018-11-03T03:23:32.903Z,5.4
2018-11-03T03:24:23.542Z,5.4
2018-11-03T03:25:13.632Z,5.4
2018-11-03T03:26:03.722Z,5.5
2018-11-03T03:26:53.824Z,5.4
2018-11-03T03:27:43.208Z,5.4
2018-11-03T03:28:33.559Z,5.4
2018-11-03T03:29:23.602Z,5.4
2018-11-03T03:30:13.964Z,5.4
2018-11-03T03:31:03.882Z,5.4
2018-11-03T03:31:53.547Z,5.4
2018-11-03T03:32:44.887Z,5.4
2018-11-03T03:33:34.212Z,5.4
2018-11-03T03:34:24.511Z,5.4
2018-11-03T03:35:14.858Z,5.3
2018-11-03T03:36:03.890Z,5.4
2018-11-03T03:36:53.868Z,5.4
2018-11-03T03:37:44.577Z,5.4
2018-11-03T03:38:34.316Z,5.4
2018-11-03T03:39:24.458Z,5.4
2018-11-03T03:40:14.677Z,5.4
2018-11-03T03:41:03.979Z,5.4
2018-11-03T03:41:54.829Z,5.4
2018-11-03T03:42:44.383Z,5.4
2018-11-03T03:43:34.459Z,5.4
2018-11-03T03:44:24.680Z,5.4
2018-11-03T03:45:14.780Z,5.4
2018-11-03T03:46:05.145Z,5.4
2018-11-03T03:46:54.613Z,5.3
2018-11-03T03:47:44.463Z,5.3
2018-11-03T03:48:35.018Z,5.3
2018-11-03T03:49:24.917Z,5.3
2018-11-03T03:50:14.941Z,5.3
2018-11-03T03:51:05.204Z,5.4
2018-11-03T03:51:54.975Z,5.4
2018-11-03T03:52:44.830Z,5.3
2018-11-03T03:53:35.388Z,5.3
2018-11-03T03:54:26.020Z,5.3
2018-11-03T03:55:15.796Z,5.3
2018-11-03T03:56:05.596Z,5.3
2018-11-03T03:56:55.423Z,5.3
2018-11-03T03:57:45.700Z,5.3
2018-11-03T03:58:35.352Z,5.3
2018-11-03T03:59:26.181Z,5.3
2018-11-03T04:00:15.298Z,5.3
2018-11-03T04:01:05.935Z,5.3
2018-11-03T04:01:56.007Z,5.3
2018-11-03T04:02:46.444Z,5.3
2018-11-03T04:03:36.085Z,5.3
2018-11-03T04:04:26.032Z,5.4
2018-11-03T04:05:16.192Z,5.3
2018-11-03T04:06:06.585Z,5.3
2018-11-03T04:06:56.686Z,5.3
2018-11-03T04:07:46.726Z,5.3
2018-11-03T04:08:36.511Z,5.3
2018-11-03T04:09:26.780Z,5.3
2018-11-03T04:10:16.864Z,5.3
2018-11-03T04:11:06.685Z,5.3
2018-11-03T04:11:55.947Z,5.3
2018-11-03T04:12:47.492Z,5.3
2018-11-03T04:13:36.563Z,5.3
2018-11-03T04:14:26.340Z,5.3
2018-11-03T04:15:16.999Z,5.3
2018-11-03T04:16:07.700Z,5.3
2018-11-03T04:16:57.102Z,5.3
2018-11-03T04:17:47.167Z,5.3
2018-11-03T04:18:36.723Z,5.3
2018-11-03T04:19:28.244Z,5.3
2018-11-03T04:20:17.642Z,5.3
2018-11-03T04:21:07.117Z,5.3
2018-11-03T04:21:57.472Z,5.3
2018-11-03T04:22:47.677Z,5.3
2018-11-03T04:23:37.299Z,5.3
2018-11-03T04:24:27.365Z,5.3
2018-11-03T04:25:32.406Z,5.3
2018-11-03T04:26:08.445Z,5.3
2018-11-03T04:26:57.931Z,5.4
2018-11-03T04:27:47.886Z,5.4
2018-11-03T04:28:37.946Z,5.4
2018-11-03T04:29:28.576Z,5.4
2018-11-03T04:30:17.596Z,5.4
2018-11-03T04:31:08.702Z,5.4
2018-11-03T04:31:58.503Z,5.4
2018-11-03T04:32:49.066Z,5.4
2018-11-03T04:33:38.023Z,5.4
2018-11-03T04:34:28.178Z,5.4
2018-11-03T04:35:18.292Z,5.4
2018-11-03T04:36:09.831Z,5.4
2018-11-03T04:54:09.402Z,5.4
2018-11-03T04:54:59.999Z,5.4
2018-11-03T04:55:49.438Z,5.4
2018-11-03T04:56:39.017Z,5.4
2018-11-03T04:57:29.232Z,5.4
2018-11-03T04:58:19.600Z,5.4
2018-11-03T04:59:10.135Z,5.4
2018-11-03T04:59:59.961Z,5.4
2018-11-03T05:00:49.487Z,5.4
2018-11-03T05:01:39.559Z,5.4
2018-11-03T05:02:29.902Z,5.4
2018-11-03T05:03:20.249Z,5.4
2018-11-03T05:04:09.442Z,5.4
2018-11-03T05:04:59.784Z,5.4
2018-11-03T05:05:49.844Z,5.4
2018-11-03T05:06:39.607Z,5.4
2018-11-03T05:07:30.816Z,5.4
2018-11-03T05:08:20.321Z,5.4
2018-11-03T05:09:09.851Z,5.5
2018-11-03T05:10:00.336Z,5.4
2018-11-03T05:10:49.726Z,5.5
2018-11-03T05:11:41.584Z,5.5
2018-11-03T05:12:30.664Z,5.5
2018-11-03T05:13:20.409Z,5.5
2018-11-03T05:14:10.758Z,5.5
2018-11-03T05:15:01.493Z,5.6
2018-11-03T05:15:51.155Z,5.5
2018-11-03T05:16:40.646Z,5.6
2018-11-03T05:17:30.723Z,5.6
2018-11-03T05:18:22.417Z,5.6
2018-11-03T05:19:10.619Z,5.6
2018-11-03T05:20:01.468Z,5.6
2018-11-03T05:20:51.271Z,5.6
2018-11-03T05:21:42.386Z,5.7
2018-11-03T05:22:31.066Z,5.7
2018-11-03T05:23:20.850Z,5.7
2018-11-03T05:24:11.781Z,5.8
2018-11-03T05:25:01.974Z,5.8
2018-11-03T05:25:51.624Z,5.8
2018-11-03T05:26:41.398Z,5.8
2018-11-03T05:27:31.736Z,5.8
2018-11-03T05:28:21.773Z,5.8
2018-11-03T05:29:11.287Z,5.9
2018-11-03T05:30:01.641Z,5.9
2018-11-03T05:30:52.241Z,5.9
2018-11-03T05:31:42.563Z,6
2018-11-03T05:32:32.411Z,6
2018-11-03T05:33:22.186Z,6.1
2018-11-03T05:34:12.567Z,6.1
2018-11-03T05:35:02.698Z,6.1
2018-11-03T05:35:52.313Z,6.2
2018-11-03T05:36:42.691Z,6.2
2018-11-03T05:37:31.890Z,6.2
2018-11-03T05:38:23.553Z,6.3
2018-11-03T05:39:12.318Z,6.3
2018-11-03T05:40:02.423Z,6.3
2018-11-03T05:40:52.449Z,6.4
2018-11-03T05:41:43.567Z,6.4
2018-11-03T05:42:32.864Z,6.4
2018-11-03T05:43:23.000Z,6.6
2018-11-03T05:44:12.679Z,6.6
2018-11-03T05:45:02.860Z,6.6
2018-11-03T05:45:53.578Z,6.8
2018-11-03T05:46:44.080Z,6.8
2018-11-03T05:47:33.022Z,6.9
2018-11-03T05:48:22.782Z,7
2018-11-03T05:49:13.078Z,7.1
2018-11-03T05:50:02.817Z,7.3
2018-11-03T05:50:53.183Z,7.4
2018-11-03T05:51:43.824Z,7.6
2018-11-03T05:52:33.417Z,7.8
2018-11-03T05:53:23.659Z,7.9
2018-11-03T05:54:13.521Z,8.1
2018-11-03T05:55:03.571Z,8.3
2018-11-03T05:55:53.650Z,8.6
2018-11-03T05:56:43.722Z,8.8
2018-11-03T05:57:33.951Z,9.1
2018-11-03T05:58:24.006Z,9.3
2018-11-03T05:59:14.309Z,9.6
2018-11-03T06:00:03.945Z,9.9
2018-11-03T06:00:54.201Z,10.1
2018-11-03T06:01:44.061Z,10.4
2018-11-03T06:02:34.032Z,10.8
2018-11-03T06:03:24.424Z,11
2018-11-03T06:04:14.441Z,11.4
2018-11-03T06:05:04.826Z,11.7
2018-11-03T06:05:54.884Z,12
2018-11-03T06:06:44.629Z,12.3
2018-11-03T06:07:34.996Z,12.6
2018-11-03T06:08:24.761Z,12.9
2018-11-03T06:09:14.526Z,13.3
2018-11-03T06:10:04.882Z,13.6
2018-11-03T06:10:55.021Z,13.9
2018-11-03T06:11:45.234Z,14.2
2018-11-03T06:12:34.763Z,14.5
2018-11-03T06:13:25.113Z,14.8
2018-11-03T06:14:14.590Z,15.1
2018-11-03T06:15:05.253Z,15.4
2018-11-03T06:15:55.288Z,15.7
2018-11-03T06:16:45.056Z,15.9
2018-11-03T06:17:35.418Z,16.2
2018-11-03T06:18:25.194Z,16.4
2018-11-03T06:19:15.525Z,16.7
2018-11-03T06:20:05.105Z,16.9
2018-11-03T06:20:55.948Z,17.1
2018-11-03T06:21:45.703Z,17.3
2018-11-03T06:22:36.238Z,17.5
2018-11-03T06:23:26.149Z,17.7
2018-11-03T06:24:15.615Z,17.9
2018-11-03T06:25:05.389Z,18.1
2018-11-03T06:25:56.025Z,18.3
2018-11-03T06:26:46.643Z,18.4
2018-11-03T06:27:35.852Z,18.6
2018-11-03T06:28:26.220Z,18.8
2018-11-03T06:29:16.287Z,18.9
2018-11-03T06:30:06.320Z,19.1
2018-11-03T06:30:56.685Z,19.3
2018-11-03T06:31:46.179Z,19.5
2018-11-03T06:32:36.507Z,19.8
2018-11-03T06:33:26.294Z,20
2018-11-03T06:34:16.649Z,20.3
2018-11-03T06:35:07.338Z,20.5
2018-11-03T06:35:56.469Z,20.9
2018-11-03T06:37:37.131Z,21.4
2018-11-03T06:38:27.275Z,21.8
2018-11-03T06:39:16.435Z,22.1
2018-11-03T06:40:07.087Z,22.4
2018-11-03T06:40:57.132Z,22.8
2018-11-03T06:41:47.196Z,23.2
2018-11-03T06:42:37.264Z,23.6
2018-11-03T06:43:26.439Z,23.9
2018-11-03T06:44:16.685Z,24.4
2018-11-03T06:45:07.446Z,24.9
2018-11-03T06:45:57.224Z,25.4
2018-11-03T06:46:47.703Z,26.1
2018-11-03T06:47:38.909Z,26.6
2018-11-03T06:48:27.086Z,27.3
2018-11-03T06:49:17.731Z,27.8
2018-11-03T06:50:07.526Z,28.4
2018-11-03T06:50:57.587Z,28.9
2018-11-03T06:51:47.884Z,29.4
2018-11-03T06:52:38.028Z,29.9
2018-11-03T06:53:28.068Z,30.4
2018-11-03T06:54:17.903Z,30.9
2018-11-03T06:55:07.948Z,31.4
2018-11-03T06:55:58.245Z,32
2018-11-03T06:56:48.590Z,32.7
2018-11-03T06:57:38.649Z,33.3
2018-11-03T06:58:28.706Z,33.9
2018-11-03T06:59:18.479Z,34.4
2018-11-03T07:00:08.265Z,34.9
2018-11-03T07:00:58.321Z,35.4
2018-11-03T07:01:48.240Z,36
2018-11-03T07:02:38.720Z,36.5
2018-11-03T07:03:29.049Z,36.9
2018-11-03T07:04:18.835Z,37.4
2018-11-03T07:05:09.359Z,37.7
2018-11-03T07:05:58.765Z,38.1
2018-11-03T07:06:48.806Z,38.4
2018-11-03T07:07:38.978Z,38.9
2018-11-03T07:08:28.844Z,39.3
2018-11-03T07:09:19.468Z,39.8
2018-11-03T07:10:09.602Z,40.3
2018-11-03T07:10:59.338Z,40.9
2018-11-03T07:11:49.978Z,41.5
2018-11-03T07:12:41.012Z,42.1
2018-11-03T07:13:30.141Z,42.5
2018-11-03T07:14:19.554Z,42.9
2018-11-03T07:15:09.623Z,43.2
2018-11-03T07:16:00.775Z,43.4
2018-11-03T07:16:49.771Z,43.6
2018-11-03T07:17:39.841Z,43.9
2018-11-03T07:18:29.595Z,44.3
2018-11-03T07:19:19.775Z,44.7
2018-11-03T07:20:09.524Z,45.3
2018-11-03T07:21:00.385Z,45.9
2018-11-03T07:21:50.071Z,46.5
2018-11-03T07:22:39.870Z,47.1
2018-11-03T07:23:30.242Z,47.8
2018-11-03T07:24:20.346Z,48.6
2018-11-03T07:25:09.375Z,49.4
2018-11-03T07:26:00.685Z,49.9
2018-11-03T07:26:50.759Z,50.3
2018-11-03T07:27:40.551Z,50.6
2018-11-03T07:28:30.604Z,50.8
2018-11-03T07:29:20.198Z,51.1
2018-11-03T07:30:10.440Z,51.3
2018-11-03T07:31:00.802Z,51.4
2018-11-03T07:31:50.869Z,51.5
2018-11-03T07:32:40.622Z,51.6
2018-11-03T07:33:30.697Z,51.6
2018-11-03T07:34:20.537Z,51.6
2018-11-03T07:35:11.365Z,51.6
2018-11-03T07:36:01.172Z,51.8
2018-11-03T07:36:51.534Z,52.1
2018-11-03T07:37:41.278Z,52.4
2018-11-03T07:38:31.611Z,52.9
2018-11-03T07:39:21.411Z,53.3
2018-11-03T07:40:11.992Z,53.7
2018-11-03T07:41:01.837Z,54
2018-11-03T07:41:51.889Z,54.4
2018-11-03T07:42:41.935Z,54.8
2018-11-03T07:43:31.811Z,55.1
2018-11-03T07:44:21.371Z,55.5
2018-11-03T07:45:11.834Z,55.8
2018-11-03T07:46:01.399Z,56
2018-11-03T07:46:51.683Z,56.3
2018-11-03T07:47:41.738Z,56.6
2018-11-03T07:48:32.697Z,56.9
2018-11-03T07:49:22.498Z,57.2
2018-11-03T07:50:12.196Z,57.5
2018-11-03T07:51:01.946Z,57.9
2018-11-03T07:51:51.821Z,58.2
2018-11-03T07:52:42.063Z,58.6
2018-11-03T07:53:32.423Z,59.1
2018-11-03T07:54:22.054Z,59.5
2018-11-03T07:55:12.272Z,59.9
2018-11-03T07:56:02.663Z,60.3
2018-11-03T07:56:53.280Z,60.9
2018-11-03T07:57:42.757Z,61.8
2018-11-03T07:58:32.663Z,59.6
2018-11-03T07:59:22.606Z,57.6
2018-11-03T08:00:12.210Z,52.6
2018-11-03T08:01:02.400Z,46.3
2018-11-03T08:01:52.710Z,43.3
2018-11-03T08:02:43.179Z,41.7
2018-11-03T08:03:32.714Z,40.9
2018-11-03T08:04:22.653Z,40.5
2018-11-03T08:05:13.310Z,40.4
2018-11-03T08:06:02.778Z,40.7
2018-11-03T08:06:53.127Z,41.2
2018-11-03T08:07:43.465Z,41.8
2018-11-03T08:08:34.301Z,42.6
2018-11-03T08:09:23.612Z,43.4
2018-11-03T08:10:13.887Z,44.3
2018-11-03T08:11:03.722Z,45
2018-11-03T08:11:54.171Z,45.7
2018-11-03T08:12:43.827Z,46.3
2018-11-03T08:13:34.409Z,46.9
2018-11-03T08:14:23.685Z,47.6
2018-11-03T08:15:13.451Z,48.1
2018-11-03T08:16:03.617Z,48.6
2018-11-03T08:16:53.808Z,49.1
2018-11-03T08:17:43.908Z,49.5
2018-11-03T08:18:33.746Z,50
2018-11-03T08:19:24.641Z,50.5
2018-11-03T08:20:14.091Z,50.9
2018-11-03T08:21:04.752Z,51.4
2018-11-03T08:21:54.797Z,51.8
2018-11-03T08:23:34.444Z,53.2
2018-11-03T08:24:24.717Z,54.1
2018-11-03T08:25:15.016Z,54.8
2018-11-03T08:26:04.351Z,55.6
2018-11-03T08:26:54.923Z,56.2
2018-11-03T08:27:44.659Z,56.8
2018-11-03T08:28:34.526Z,57.4
2018-11-03T08:29:25.329Z,58.1
2018-11-03T08:30:14.959Z,58.9
2018-11-03T08:31:04.908Z,59.8
2018-11-03T08:31:55.250Z,61.6
2018-11-03T08:32:44.738Z,63.5
2018-11-03T08:33:35.091Z,61.6
2018-11-03T08:34:25.163Z,59.6
2018-11-03T08:35:15.223Z,55.8
2018-11-03T08:36:05.081Z,51.3
2018-11-03T08:36:55.630Z,48.6
2018-11-03T08:37:45.128Z,47.8
2018-11-03T08:38:35.452Z,48.6
2018-11-03T08:39:25.478Z,50
2018-11-03T08:40:15.653Z,51.8
2018-11-03T08:41:06.198Z,53.4
2018-11-03T08:41:56.022Z,54.9
2018-11-03T08:42:46.060Z,56.3
2018-11-03T08:43:36.137Z,57.6
2018-11-03T08:44:26.198Z,59.3
2018-11-03T08:45:16.023Z,61
2018-11-03T08:46:06.400Z,60.2
2018-11-03T08:46:56.354Z,59.9
2018-11-03T08:47:46.424Z,58.3
2018-11-03T08:48:36.884Z,55.3
2018-11-03T08:49:26.826Z,52.4
2018-11-03T08:50:16.668Z,51.6
2018-11-03T08:51:06.365Z,52.6
2018-11-03T08:51:56.995Z,54.2
2018-11-03T09:08:42.700Z,58.6
2018-11-03T09:09:32.514Z,58.5
2018-11-03T09:11:12.383Z,58.8
2018-11-03T09:12:02.432Z,59
2018-11-03T09:12:52.627Z,59.1
2018-11-03T09:13:42.546Z,59.3
2018-11-03T09:14:33.239Z,59.4
2018-11-03T09:15:22.713Z,59.4
2018-11-03T09:16:12.067Z,59.6
2018-11-03T09:17:02.812Z,59.8
2018-11-03T09:17:52.354Z,60.1
2018-11-03T09:18:42.870Z,60.3
2018-11-03T09:19:33.097Z,60.4
2018-11-03T09:20:22.230Z,60.4
2018-11-03T09:21:13.096Z,60.3
2018-11-03T09:22:02.569Z,60.1
2018-11-03T09:22:52.907Z,60.1
2018-11-03T09:23:43.266Z,60.3
2018-11-03T09:24:33.626Z,60.8
2018-11-03T09:25:22.848Z,61.1
2018-11-03T09:26:12.584Z,61.4
2018-11-03T09:27:03.319Z,61.6
2018-11-03T09:27:53.004Z,61.6
2018-11-03T09:28:43.164Z,61.4
2018-11-03T09:29:33.737Z,61.3
2018-11-03T09:30:23.793Z,61.3
2018-11-03T09:31:13.530Z,61.3
2018-11-03T09:32:04.621Z,61.3
2018-11-03T09:32:53.368Z,61.3
2018-11-03T09:33:43.411Z,61.4
2018-11-03T09:34:34.028Z,61.6
2018-11-03T09:35:24.108Z,61.8
2018-11-03T09:36:14.201Z,62.1
2018-11-03T09:37:03.726Z,62.3
2018-11-03T09:37:53.630Z,62.5
2018-11-03T09:38:44.191Z,62.6
2018-11-03T09:39:34.246Z,62.7
2018-11-03T09:40:24.208Z,62.8
2018-11-03T09:41:14.576Z,63.1
2018-11-03T09:42:03.447Z,63.3
2018-11-03T09:42:54.334Z,63.4
2018-11-03T09:43:43.956Z,63.6
2018-11-03T09:44:34.767Z,63.6
2018-11-03T09:45:24.380Z,63.8
2018-11-03T09:46:14.648Z,63.9
2018-11-03T09:47:04.208Z,64.1
2018-11-03T09:47:54.780Z,64.2
2018-11-03T09:48:44.550Z,64.3
2018-11-03T09:49:34.598Z,64.4
2018-11-03T09:50:24.571Z,64.4
2018-11-03T09:51:15.678Z,64.4
2018-11-03T09:52:04.790Z,64.4
2018-11-03T09:52:54.660Z,64.4
2018-11-03T09:53:45.310Z,64.1
2018-11-03T09:54:35.045Z,63.8
2018-11-03T09:55:25.030Z,63.5
2018-11-03T09:56:15.090Z,63.4
2018-11-03T09:57:05.510Z,63.3
2018-11-03T09:57:55.802Z,63.2
2018-11-03T09:58:45.857Z,63.1
2018-11-03T09:59:35.334Z,62.8
2018-11-03T10:00:25.695Z,62.4
2018-11-03T10:01:15.750Z,62.1
2018-11-03T10:02:04.836Z,61.9
2018-11-03T10:02:55.582Z,61.9
2018-11-03T10:03:45.448Z,61.9
2018-11-03T10:04:35.695Z,62.1
2018-11-03T10:05:26.320Z,62.3
2018-11-03T10:06:16.145Z,62.5
2018-11-03T10:07:05.987Z,62.6
2018-11-03T10:07:56.030Z,62.4
2018-11-03T10:08:45.725Z,62.3
2018-11-03T10:09:36.215Z,62
2018-11-03T10:10:26.747Z,61.7
2018-11-03T10:11:16.778Z,61.3
2018-11-03T10:12:06.852Z,60.9
2018-11-03T10:12:56.612Z,60.8
2018-11-03T10:13:46.674Z,60.8
2018-11-03T10:14:36.819Z,60.9
2018-11-03T10:15:26.290Z,61.1
2018-11-03T10:16:17.176Z,61.3
2018-11-03T10:17:06.939Z,61.3
2018-11-03T10:17:56.771Z,61.3
2018-11-03T10:18:47.061Z,61.3
2018-11-03T10:19:37.206Z,61.4
2018-11-03T10:20:27.179Z,61.6
2018-11-03T10:21:16.821Z,61.8
2018-11-03T10:22:07.520Z,61.9
2018-11-03T10:22:57.942Z,62
2018-11-03T10:23:47.925Z,62.1
2018-11-03T10:24:36.875Z,62
2018-11-03T10:25:27.323Z,61.9
2018-11-03T10:26:17.626Z,61.9
2018-11-03T10:27:08.163Z,61.8
2018-11-03T10:27:57.430Z,61.5
2018-11-03T10:28:47.481Z,61.4
2018-11-03T10:29:37.848Z,61.3
2018-11-03T10:30:27.680Z,61.3
2018-11-03T10:31:17.665Z,61
2018-11-03T10:32:07.690Z,60.9
2018-11-03T10:32:57.805Z,60.9
2018-11-03T10:33:49.971Z,60.9
2018-11-03T10:34:38.498Z,61.1
2018-11-03T10:35:28.555Z,61.2
2018-11-03T10:36:18.640Z,61.6
2018-11-03T10:37:08.973Z,61.9
2018-11-03T10:37:58.323Z,62.1
2018-11-03T10:38:48.029Z,62.3
2018-11-03T10:39:38.868Z,62.6
2018-11-03T10:40:29.038Z,62.9
2018-11-03T10:41:18.950Z,63.1
2018-11-03T10:42:08.331Z,63.2
2018-11-03T10:42:58.640Z,63.3
2018-11-03T10:43:49.756Z,63.5
2018-11-03T10:44:38.668Z,63.7
2018-11-03T10:45:28.717Z,63.8
2018-11-03T10:46:18.790Z,63.8
2018-11-03T10:47:08.802Z,64.1
2018-11-03T10:47:59.505Z,64.4
2018-11-03T10:48:49.565Z,64.6
2018-11-03T10:49:39.035Z,64.5
2018-11-03T10:50:29.117Z,64.4
2018-11-03T10:51:18.895Z,64.3
2018-11-03T10:52:09.217Z,64.4
2018-11-03T10:53:00.118Z,64.6
2018-11-03T10:53:50.638Z,64.9
2018-11-03T10:54:39.355Z,65.1
2018-11-03T10:55:29.464Z,65.2
2018-11-03T10:56:19.538Z,65.4
2018-11-03T10:57:09.794Z,65.4
2018-11-03T10:58:00.476Z,65.3
2018-11-03T10:58:49.990Z,65.1
2018-11-03T10:59:40.066Z,64.7
2018-11-03T11:00:30.106Z,64.1
2018-11-03T11:01:20.176Z,63.5
2018-11-03T11:02:10.367Z,63
2018-11-03T11:02:59.726Z,62.6
2018-11-03T11:03:50.380Z,62.2
2018-11-03T11:04:40.128Z,61.9
2018-11-03T11:05:30.502Z,61.6
2018-11-03T11:06:20.281Z,61.5
2018-11-03T11:07:10.338Z,61.5
2018-11-03T11:08:00.731Z,61.5
2018-11-03T11:08:50.053Z,61.4
2018-11-03T11:09:40.395Z,61.1
2018-11-03T11:10:30.605Z,60.8
2018-11-03T11:11:20.727Z,60.4
2018-11-03T11:12:10.985Z,60.2
2018-11-03T11:13:00.765Z,60.1
2018-11-03T11:13:51.662Z,60
2018-11-03T11:14:40.590Z,59.8
2018-11-03T11:15:30.953Z,59.9
2018-11-03T11:16:21.466Z,59.8
2018-11-03T11:17:11.370Z,59.4
2018-11-03T11:18:01.717Z,59.1
2018-11-03T11:19:41.585Z,57.9
2018-11-03T11:20:31.610Z,57.4
2018-11-03T11:21:21.757Z,57.1
2018-11-03T11:22:11.440Z,56.8
2018-11-03T11:23:01.523Z,56.6
2018-11-03T11:23:52.350Z,56.6
2018-11-03T11:24:42.985Z,56.3
2018-11-03T11:25:32.642Z,56.1
2018-11-03T11:26:22.039Z,55.8
2018-11-03T11:27:11.919Z,55.4
2018-11-03T11:28:01.722Z,55.1
2018-11-03T11:28:52.586Z,54.9
2018-11-03T11:29:42.589Z,55
2018-11-03T11:30:32.629Z,55.1
2018-11-03T11:31:22.236Z,55.3
2018-11-03T11:32:12.379Z,55.6
2018-11-03T11:33:02.540Z,55.8
2018-11-03T11:33:53.140Z,56.1
2018-11-03T11:34:42.731Z,56.3
2018-11-03T11:35:32.999Z,56.5
2018-11-03T11:36:22.569Z,56.9
2018-11-03T11:37:12.544Z,57.5
2018-11-03T11:38:03.229Z,57.9
2018-11-03T11:38:52.992Z,58.4
2018-11-03T11:39:42.531Z,58.8
2018-11-03T11:40:32.806Z,59.1
2018-11-03T11:41:23.461Z,59.3
2018-11-03T11:42:13.517Z,59.4
2018-11-03T11:43:02.944Z,59.5
2018-11-03T11:43:52.931Z,59.5
2018-11-03T11:44:42.823Z,59.6
2018-11-03T11:45:33.159Z,59.5
2018-11-03T11:46:23.136Z,59.4
2018-11-03T11:47:13.595Z,59.5
2018-11-03T11:48:03.643Z,59.6
2018-11-03T11:48:53.411Z,59.7
2018-11-03T11:49:43.471Z,59.8
2018-11-03T11:50:33.828Z,59.9
2018-11-03T11:51:23.608Z,60
2018-11-03T11:52:13.690Z,60.3
2018-11-03T11:53:03.817Z,60.5
2018-11-03T11:53:53.806Z,60.8
2018-11-03T11:54:43.464Z,61.1
2018-11-03T11:55:33.616Z,61.3
2018-11-03T11:56:24.291Z,61.3
2018-11-03T11:57:14.126Z,61.6
2018-11-03T11:58:04.665Z,61.7
2018-11-03T11:58:54.226Z,61.9
2018-11-03T11:59:43.932Z,62.1
2018-11-03T12:00:35.312Z,62.5
2018-11-03T12:01:24.431Z,62.9
2018-11-03T12:02:14.417Z,63.3
2018-11-03T12:03:04.763Z,63.7
2018-11-03T12:03:55.108Z,65.3
2018-11-03T12:04:45.160Z,65.8
2018-11-03T12:05:34.666Z,63.8
2018-11-03T12:06:25.278Z,61.4
2018-11-03T12:07:15.365Z,56.6
2018-11-03T12:08:04.753Z,53
2018-11-03T12:08:54.702Z,51.5
2018-11-03T12:09:45.268Z,51
2018-11-03T12:10:35.399Z,51.1
2018-11-03T12:11:24.886Z,51.3
2018-11-03T12:12:15.147Z,51.7